createdAt,value
2019-01-19T00:00:22.917Z,8.80
2019-01-19T00:03:32.035Z,7.60
2019-01-19T00:06:35.600Z,9.80
2019-01-19T00:09:37.812Z,7.43
2019-01-19T00:12:31.247Z,6.97
2019-01-19T00:18:42.851Z,13.67
2019-01-19T00:21:32.729Z,11.83
2019-01-19T00:27:37.975Z,14.27
2019-01-19T00:30:31.685Z,13.30
2019-01-19T00:33:28.582Z,11.87
2019-01-19T00:36:27.999Z,9.77
2019-01-19T00:39:21.027Z,13.37
2019-01-19T00:42:20.263Z,12.93
2019-01-19T00:45:19.676Z,11.27
2019-01-19T00:48:18.850Z,9.07
2019-01-19T00:51:17.999Z,12.60
2019-01-19T00:54:17.539Z,11.57
2019-01-19T00:57:16.736Z,9.13
2019-01-19T01:00:12.710Z,9.47
2019-01-19T01:03:05.127Z,8.50
2019-01-19T01:05:58.100Z,7.23
2019-01-19T01:08:51.466Z,5.87
2019-01-19T01:11:38.884Z,9.10
2019-01-19T01:14:35.323Z,5.83
2019-01-19T01:17:25.581Z,4.93
2019-01-19T01:20:22.068Z,8.90
2019-01-19T01:23:27.849Z,7.30
2019-01-19T01:26:33.454Z,7.13
2019-01-19T01:29:25.745Z,11.53
2019-01-19T01:32:19.143Z,9.57
2019-01-19T01:35:20.343Z,8.50
2019-01-19T01:41:49.126Z,14.00
2019-01-19T01:44:44.815Z,10.37
2019-01-19T01:47:50.109Z,13.73
2019-01-19T01:50:40.201Z,13.33
2019-01-19T01:53:42.595Z,9.07
2019-01-19T01:56:29.677Z,14.80
2019-01-19T01:59:19.287Z,9.20
2019-01-19T02:02:15.689Z,9.20
2019-01-19T02:05:02.890Z,10.07
2019-01-19T02:07:55.188Z,8.33
2019-01-19T02:17:21.984Z,10.87
2019-01-19T02:20:21.945Z,11.30
2019-01-19T02:26:30.483Z,9.70
2019-01-19T02:29:27.195Z,10.53
2019-01-19T02:32:29.706Z,9.80
2019-01-19T02:35:36.852Z,9.83
2019-01-19T02:38:45.416Z,8.57
2019-01-19T02:41:40.785Z,10.13
2019-01-19T02:44:46.486Z,12.23
2019-01-19T02:54:35.556Z,8.03
2019-01-19T03:04:40.759Z,9.83
2019-01-19T03:07:28.894Z,8.43
2019-01-19T03:10:25.561Z,11.47
2019-01-19T03:13:48.101Z,11.15
2019-01-19T03:23:07.857Z,8.00
2019-01-19T03:26:05.532Z,8.13
2019-01-19T03:29:07.511Z,7.47
2019-01-19T03:32:11.231Z,10.43
2019-01-19T03:35:10.370Z,10.30
2019-01-19T03:41:50.068Z,7.23
2019-01-19T03:44:48.733Z,10.43
2019-01-19T03:47:39.811Z,9.77
2019-01-19T03:50:41.398Z,6.13
2019-01-19T03:53:40.976Z,5.57
2019-01-19T03:56:56.440Z,8.07
2019-01-19T03:59:50.034Z,6.70
2019-01-19T04:06:12.434Z,6.47
2019-01-19T04:09:01.214Z,7.53
2019-01-19T04:11:48.662Z,6.73
2019-01-19T04:14:36.809Z,5.23
2019-01-19T04:17:27.268Z,10.30
2019-01-19T04:20:43.954Z,8.33
2019-01-19T04:23:31.904Z,7.90
2019-01-19T04:26:19.648Z,6.40
2019-01-19T04:29:08.402Z,9.17
2019-01-19T04:31:57.657Z,8.07
2019-01-19T04:34:45.627Z,8.07
2019-01-19T04:37:34.670Z,6.73
2019-01-19T04:40:22.270Z,7.53
2019-01-19T04:43:10.081Z,6.27
2019-01-19T04:45:57.779Z,8.43
2019-01-19T04:48:45.264Z,9.93
2019-01-19T04:51:33.088Z,6.57
2019-01-19T04:54:20.467Z,9.37
2019-01-19T04:57:15.971Z,7.47
2019-01-19T05:00:13.980Z,7.47
2019-01-19T05:03:01.708Z,9.60
2019-01-19T05:05:48.883Z,6.83
2019-01-19T05:08:52.412Z,8.13
2019-01-19T05:11:40.788Z,5.87
2019-01-19T05:14:28.104Z,5.37
2019-01-19T05:17:23.710Z,7.00
2019-01-19T05:20:19.277Z,6.57
2019-01-19T05:23:06.554Z,5.50
2019-01-19T05:25:53.515Z,6.90
2019-01-19T05:28:40.923Z,5.87
2019-01-19T05:31:29.354Z,8.30
2019-01-19T05:34:24.794Z,6.57
2019-01-19T05:43:32.180Z,11.48
2019-01-19T05:46:33.269Z,6.43
2019-01-19T05:49:20.583Z,10.17
2019-01-19T05:52:09.130Z,5.90
2019-01-19T05:54:56.245Z,7.70
2019-01-19T05:57:43.604Z,10.02
2019-01-19T06:00:31.148Z,7.20
2019-01-19T06:03:18.575Z,5.37
2019-01-19T06:15:33.442Z,6.60
2019-01-19T06:18:36.027Z,9.17
2019-01-19T06:21:23.544Z,6.67
2019-01-19T06:24:11.622Z,5.63
2019-01-19T06:36:17.304Z,7.43
2019-01-19T06:39:04.588Z,12.87
2019-01-19T06:41:52.287Z,7.47
2019-01-19T06:44:39.680Z,9.67
2019-01-19T06:47:26.855Z,8.50
2019-01-19T06:53:20.362Z,10.25
2019-01-19T06:56:08.697Z,7.73
2019-01-19T06:58:56.100Z,8.20
2019-01-19T07:01:43.807Z,11.47
2019-01-19T07:04:32.295Z,10.33
2019-01-19T07:07:20.742Z,10.33
2019-01-19T07:10:20.581Z,9.63
2019-01-19T07:13:11.975Z,8.60
2019-01-19T07:19:16.575Z,9.30
2019-01-19T07:22:03.804Z,13.68
2019-01-19T07:24:50.965Z,12.20
2019-01-19T07:30:44.637Z,15.40
2019-01-19T07:33:31.878Z,17.52
2019-01-19T07:36:19.240Z,13.73
2019-01-19T07:39:06.870Z,10.30
2019-01-19T07:41:53.917Z,14.03
2019-01-19T07:44:43.835Z,10.30
2019-01-19T07:47:31.188Z,13.27
2019-01-19T07:50:19.003Z,13.17
2019-01-19T07:53:06.542Z,23.27
2019-01-19T07:55:54.802Z,20.83
2019-01-19T07:58:42.506Z,15.35
2019-01-19T08:01:29.923Z,14.53
2019-01-19T08:04:18.243Z,12.37
2019-01-19T08:07:05.436Z,10.03
2019-01-19T08:09:52.451Z,11.03
2019-01-19T08:12:39.897Z,9.40
2019-01-19T08:15:27.281Z,8.97
2019-01-19T08:18:14.846Z,10.93
2019-01-19T08:21:02.895Z,11.77
2019-01-19T08:23:50.613Z,11.07
2019-01-19T08:26:38.358Z,9.77
2019-01-19T08:29:26.085Z,9.80
2019-01-19T08:32:14.218Z,10.10
2019-01-19T08:35:02.353Z,11.60
2019-01-19T08:37:49.522Z,9.37
2019-01-19T08:40:36.683Z,9.03
2019-01-19T08:43:24.673Z,10.43
2019-01-19T08:46:11.912Z,11.33
2019-01-19T08:48:59.051Z,9.20
2019-01-19T08:51:46.472Z,10.30
2019-01-19T08:54:33.994Z,8.07
2019-01-19T08:57:21.056Z,9.20
2019-01-19T09:00:08.575Z,12.10
2019-01-19T09:02:56.054Z,11.00
2019-01-19T09:05:43.477Z,8.70
2019-01-19T09:08:30.611Z,9.17
2019-01-19T09:11:17.738Z,11.83
2019-01-19T09:14:04.931Z,10.63
2019-01-19T09:16:54.710Z,9.68
2019-01-19T09:19:42.159Z,11.23
2019-01-19T09:22:29.615Z,10.47
2019-01-19T09:25:16.883Z,7.10
2019-01-19T09:28:04.548Z,8.17
2019-01-19T09:30:52.675Z,8.10
2019-01-19T09:33:39.899Z,8.63
2019-01-19T09:36:27.256Z,7.50
2019-01-19T09:39:16.896Z,10.48
2019-01-19T09:42:04.065Z,8.95
2019-01-19T09:44:51.461Z,9.67
2019-01-19T09:47:38.662Z,10.00
2019-01-19T09:50:28.861Z,8.80
2019-01-19T09:53:16.473Z,9.18
2019-01-19T09:56:04.112Z,8.47
2019-01-19T09:58:51.527Z,12.57
2019-01-19T10:01:39.019Z,7.70
2019-01-19T10:04:26.017Z,7.47
2019-01-19T10:07:13.392Z,7.77
2019-01-19T10:10:00.891Z,8.90
2019-01-19T10:12:48.459Z,9.37
2019-01-19T10:15:35.719Z,7.93
2019-01-19T10:18:25.826Z,10.33
2019-01-19T10:21:13.145Z,8.70
2019-01-19T10:24:01.679Z,7.57
2019-01-19T10:26:49.260Z,9.23
2019-01-19T10:32:47.924Z,9.10
2019-01-19T10:35:33.442Z,7.33
2019-01-19T10:38:20.950Z,5.97
2019-01-19T10:41:08.410Z,6.37
2019-01-19T10:43:55.813Z,6.73
2019-01-19T10:46:43.482Z,6.60
2019-01-19T10:49:31.197Z,6.90
2019-01-19T10:52:18.515Z,6.23
2019-01-19T10:55:05.926Z,6.40
2019-01-19T10:58:08.848Z,7.43
2019-01-19T11:00:56.037Z,5.77
2019-01-19T11:03:43.815Z,7.83
2019-01-19T11:06:31.192Z,8.20
2019-01-19T11:09:18.349Z,6.17
2019-01-19T11:12:05.679Z,5.83
2019-01-19T11:14:54.050Z,7.78
2019-01-19T11:17:41.449Z,7.00
2019-01-19T11:23:39.779Z,8.77
2019-01-19T11:26:22.630Z,6.73
2019-01-19T11:29:16.393Z,7.47
2019-01-19T11:32:04.971Z,7.93
2019-01-19T11:34:52.444Z,7.60
2019-01-19T11:37:39.970Z,7.43
2019-01-19T11:40:27.286Z,5.30
2019-01-19T11:43:14.448Z,9.00
2019-01-19T11:46:05.337Z,7.30
2019-01-19T11:48:53.499Z,8.37
2019-01-19T11:51:42.440Z,8.27
2019-01-19T11:54:30.032Z,7.57
2019-01-19T12:00:35.415Z,9.00
2019-01-19T12:03:22.845Z,5.00
2019-01-19T12:06:11.190Z,7.60
2019-01-19T12:08:58.204Z,7.33
2019-01-19T12:11:46.855Z,5.13
2019-01-19T12:14:34.382Z,5.37
2019-01-19T12:17:22.001Z,8.67
2019-01-19T12:20:21.483Z,6.70
2019-01-19T12:23:08.886Z,7.50
2019-01-19T12:25:56.336Z,8.63
2019-01-19T12:28:43.401Z,8.03
2019-01-19T12:31:30.518Z,7.27
2019-01-19T12:34:20.467Z,6.37
2019-01-19T12:37:08.408Z,7.27
2019-01-19T12:39:55.507Z,8.77
2019-01-19T12:42:43.132Z,9.07
2019-01-19T12:45:30.880Z,7.60
2019-01-19T12:48:18.141Z,8.43
2019-01-19T12:51:05.792Z,8.20
2019-01-19T12:53:52.868Z,8.00
2019-01-19T12:56:40.146Z,7.27
2019-01-19T12:59:27.303Z,5.00
2019-01-19T13:02:14.795Z,5.57
2019-01-19T13:05:02.067Z,6.17
2019-01-19T13:07:49.502Z,7.67
2019-01-19T13:10:38.584Z,5.03
2019-01-19T13:13:26.147Z,6.00
2019-01-19T13:16:35.613Z,5.53
2019-01-19T13:19:25.970Z,5.03
2019-01-19T13:22:13.540Z,7.00
2019-01-19T13:25:09.271Z,6.83
2019-01-19T13:28:08.675Z,7.43
2019-01-19T13:31:20.688Z,5.33
2019-01-19T13:34:10.717Z,4.60
2019-01-19T13:37:04.051Z,5.67
2019-01-19T13:39:52.694Z,6.23
2019-01-19T13:42:40.607Z,3.70
2019-01-19T13:45:33.897Z,7.30
2019-01-19T13:48:36.354Z,6.73
2019-01-19T13:51:29.455Z,8.10
2019-01-19T13:54:22.050Z,9.90
2019-01-19T13:57:15.247Z,5.00
2019-01-19T14:00:20.899Z,13.90
2019-01-19T14:03:30.624Z,12.45
2019-01-19T14:06:24.037Z,7.95
2019-01-19T14:09:19.953Z,9.67
2019-01-19T14:15:24.267Z,7.18
2019-01-19T14:18:14.741Z,7.97
2019-01-19T14:21:20.455Z,6.53
2019-01-19T14:24:08.012Z,7.90
2019-01-19T14:27:10.194Z,4.80
2019-01-19T14:33:37.580Z,7.80
2019-01-19T14:36:56.498Z,4.57
2019-01-19T14:40:00.215Z,5.83
2019-01-19T14:43:01.168Z,7.30
2019-01-19T14:45:52.058Z,8.17
2019-01-19T14:49:00.916Z,6.03
2019-01-19T14:52:03.660Z,9.23
2019-01-19T14:55:18.708Z,9.60
2019-01-19T14:58:31.124Z,6.03
2019-01-19T15:01:24.806Z,6.57
2019-01-19T15:04:26.651Z,5.20
2019-01-19T15:11:00.311Z,4.77
2019-01-19T15:14:03.239Z,4.37
2019-01-19T15:17:14.396Z,7.55
2019-01-19T15:20:08.259Z,4.40
2019-01-19T15:23:18.721Z,4.40
2019-01-19T15:26:36.522Z,6.30
2019-01-19T15:29:38.803Z,5.60
2019-01-19T15:32:45.748Z,6.78
2019-01-19T15:38:58.803Z,7.20
2019-01-19T15:42:04.724Z,9.43
2019-01-19T15:45:01.434Z,10.43
2019-01-19T15:48:04.826Z,12.70
2019-01-19T15:51:18.691Z,11.23
2019-01-19T15:54:08.991Z,5.67
2019-01-19T15:57:20.097Z,10.77
2019-01-19T16:00:36.118Z,11.10
2019-01-19T16:03:57.593Z,5.77
2019-01-19T16:07:17.330Z,5.32
2019-01-19T16:10:10.687Z,6.50
2019-01-19T16:13:06.735Z,4.73
2019-01-19T16:16:15.957Z,4.07
2019-01-19T16:19:13.633Z,6.37
2019-01-19T16:22:03.596Z,3.47
2019-01-19T16:25:15.695Z,4.80
2019-01-19T16:28:18.631Z,3.30
2019-01-19T16:31:09.432Z,7.30
2019-01-19T16:34:12.945Z,7.33
2019-01-19T16:40:34.699Z,4.67
2019-01-19T16:43:25.742Z,5.10
2019-01-19T16:46:44.667Z,8.93
2019-01-19T16:49:46.978Z,10.20
2019-01-19T16:52:36.879Z,7.07
2019-01-19T16:55:46.732Z,7.37
2019-01-19T17:08:55.420Z,9.33
2019-01-19T17:12:01.465Z,7.17
2019-01-19T17:14:58.473Z,5.33
2019-01-19T17:18:10.917Z,6.53
2019-01-19T17:21:13.377Z,6.60
2019-01-19T17:24:17.671Z,10.57
2019-01-19T17:27:29.273Z,7.70
2019-01-19T17:30:22.218Z,12.17
2019-01-19T17:33:20.670Z,6.17
2019-01-19T17:36:30.915Z,14.10
2019-01-19T17:39:45.752Z,9.90
2019-01-19T17:45:59.944Z,10.77
2019-01-19T17:48:57.573Z,12.90
2019-01-19T17:51:52.908Z,12.77
2019-01-19T17:55:05.147Z,12.10
2019-01-19T18:01:13.075Z,10.77
2019-01-19T18:04:04.771Z,7.60
2019-01-19T18:07:32.368Z,9.60
2019-01-19T18:10:21.081Z,7.00
2019-01-19T18:13:32.015Z,13.52
2019-01-19T18:16:22.407Z,10.93
2019-01-19T18:19:13.251Z,11.03
2019-01-19T18:22:22.714Z,8.17
2019-01-19T18:25:10.966Z,9.57
2019-01-19T18:31:45.214Z,11.80
2019-01-19T18:34:41.764Z,8.33
2019-01-19T18:37:41.959Z,14.18
2019-01-19T18:40:35.947Z,12.23
2019-01-19T18:43:24.231Z,12.40
2019-01-19T18:46:16.816Z,10.77
2019-01-19T18:49:13.528Z,9.70
2019-01-19T18:52:02.667Z,12.85
2019-01-19T18:55:01.183Z,12.67
2019-01-19T18:57:52.963Z,13.98
2019-01-19T19:00:53.243Z,13.70
2019-01-19T19:04:06.507Z,14.80
2019-01-19T19:07:13.765Z,11.07
2019-01-19T19:10:32.252Z,12.67
2019-01-19T19:13:17.344Z,14.23
2019-01-19T19:16:18.166Z,10.43
2019-01-19T19:19:14.043Z,14.97
2019-01-19T19:28:59.880Z,14.93
2019-01-19T19:32:03.506Z,14.13
2019-01-19T19:35:11.826Z,13.90
2019-01-19T19:38:17.022Z,10.83
2019-01-19T19:41:08.444Z,13.23
2019-01-19T19:44:17.640Z,12.27
2019-01-19T19:47:16.692Z,13.53
2019-01-19T19:50:29.380Z,14.20
2019-01-19T19:53:18.543Z,9.50
2019-01-19T19:56:05.341Z,12.17
2019-01-19T20:05:07.495Z,11.73
2019-01-19T20:07:55.094Z,10.53
2019-01-19T20:10:42.399Z,13.73
2019-01-19T20:13:30.389Z,12.37
2019-01-19T20:16:17.987Z,10.83
2019-01-19T20:19:09.744Z,12.93
2019-01-19T20:21:58.764Z,11.80
2019-01-19T20:24:48.864Z,12.37
2019-01-19T20:27:37.345Z,14.17
2019-01-19T20:30:30.449Z,9.70
2019-01-19T20:36:26.935Z,14.93
2019-01-19T20:39:18.444Z,14.33
2019-01-19T20:42:05.972Z,10.80
2019-01-19T20:44:56.065Z,14.13
2019-01-19T20:47:44.488Z,17.90
2019-01-19T20:50:32.121Z,14.13
2019-01-19T20:53:19.781Z,15.00
2019-01-19T20:56:07.109Z,13.57
2019-01-19T20:58:54.910Z,15.47
2019-01-19T21:01:45.234Z,14.97
2019-01-19T21:04:32.744Z,20.97
2019-01-19T21:07:25.604Z,15.93
2019-01-19T21:10:16.204Z,15.33
2019-01-19T21:16:19.564Z,12.63
2019-01-19T21:19:07.193Z,15.90
2019-01-19T21:21:57.792Z,16.63
2019-01-19T21:24:45.354Z,19.17
2019-01-19T21:27:35.496Z,20.17
2019-01-19T21:30:23.699Z,23.87
2019-01-19T21:33:11.607Z,34.88
2019-01-19T21:36:00.834Z,36.40
2019-01-19T21:38:48.533Z,23.65
2019-01-19T21:41:36.240Z,19.67
2019-01-19T21:44:25.320Z,19.00
2019-01-19T21:47:12.000Z,22.67
2019-01-19T21:49:59.627Z,20.33
2019-01-19T21:52:47.893Z,14.57
2019-01-19T21:55:37.415Z,18.27
2019-01-19T21:58:24.871Z,18.70
2019-01-19T22:01:12.704Z,22.57
2019-01-19T22:04:00.772Z,17.17
2019-01-19T22:06:48.247Z,20.55
2019-01-19T22:09:35.636Z,18.60
2019-01-19T22:12:23.493Z,21.03
2019-01-19T22:15:10.804Z,20.07
2019-01-19T22:18:00.510Z,20.23
2019-01-19T22:20:47.795Z,18.57
2019-01-19T22:23:35.495Z,23.87
2019-01-19T22:26:22.984Z,21.43
2019-01-19T22:29:12.587Z,18.20
2019-01-19T22:32:02.188Z,21.07
2019-01-19T22:34:49.623Z,22.47
2019-01-19T22:37:36.905Z,22.30
2019-01-19T22:40:25.006Z,17.50
2019-01-19T22:43:12.300Z,18.90
2019-01-19T22:45:59.430Z,23.33
2019-01-19T22:48:46.698Z,20.10
2019-01-19T22:51:34.800Z,26.23
2019-01-19T22:54:24.835Z,22.97
2019-01-19T22:57:12.314Z,21.60
2019-01-19T23:00:07.724Z,22.70
2019-01-19T23:02:55.629Z,105.57
2019-01-19T23:08:51.256Z,104.00
2019-01-19T23:11:46.490Z,30.13
2019-01-19T23:14:33.595Z,28.70
2019-01-19T23:17:23.168Z,23.23
2019-01-19T23:23:19.588Z,20.33
2019-01-19T23:26:07.374Z,25.33
2019-01-19T23:28:56.813Z,23.67
2019-01-19T23:31:44.553Z,19.57
2019-01-19T23:34:36.169Z,18.27
2019-01-19T23:37:40.164Z,28.73
2019-01-19T23:40:27.853Z,17.67
2019-01-19T23:43:15.004Z,19.77
2019-01-19T23:46:03.025Z,20.40
2019-01-19T23:48:51.283Z,24.70
2019-01-19T23:51:39.934Z,23.00
2019-01-19T23:54:27.359Z,22.77
2019-01-19T23:57:14.617Z,20.80
